createdAt,value
2018-02-06T00:00:38.666Z,1024.7
2018-02-06T00:01:47.760Z,1024.69
2018-02-06T00:02:56.584Z,1024.69
2018-02-06T00:04:05.410Z,1024.67
2018-02-06T00:05:14.236Z,1024.63
2018-02-06T00:06:23.212Z,1024.63
2018-02-06T00:07:32.034Z,1024.61
2018-02-06T00:08:40.862Z,1024.63
2018-02-06T00:09:49.960Z,1024.64
2018-02-06T00:10:58.785Z,1024.61
2018-02-06T00:12:07.910Z,1024.64
2018-02-06T00:13:16.738Z,1024.63
2018-02-06T00:14:25.563Z,1024.66
2018-02-06T00:15:34.389Z,1024.66
2018-02-06T00:16:43.214Z,1024.64
2018-02-06T00:17:52.186Z,1024.64
2018-02-06T00:19:01.012Z,1024.61
2018-02-06T00:20:09.837Z,1024.59
2018-02-06T00:21:18.940Z,1024.64
2018-02-06T00:22:28.043Z,1024.59
2018-02-06T00:23:36.868Z,1024.57
2018-02-06T00:24:45.694Z,1024.55
2018-02-06T00:25:54.519Z,1024.51
2018-02-06T00:27:03.348Z,1024.51
2018-02-06T00:28:12.170Z,1024.52
2018-02-06T00:29:21.147Z,1024.5
2018-02-06T00:30:29.973Z,1024.46
2018-02-06T00:31:38.797Z,1024.49
2018-02-06T00:32:47.621Z,1024.47
2018-02-06T00:33:56.449Z,1024.43
2018-02-06T00:35:05.576Z,1024.39
2018-02-06T00:36:14.402Z,1024.38
2018-02-06T00:37:23.227Z,1024.4
2018-02-06T00:38:32.053Z,1024.37
2018-02-06T00:39:40.936Z,1024.41
2018-02-06T00:40:50.007Z,1024.34
2018-02-06T00:41:58.834Z,1024.37
2018-02-06T00:43:07.659Z,1024.31
2018-02-06T00:44:16.482Z,1024.31
2018-02-06T00:45:25.314Z,1024.31
2018-02-06T00:46:34.138Z,1024.29
2018-02-06T00:47:42.966Z,1024.28
2018-02-06T00:48:51.795Z,1024.22
2018-02-06T00:50:00.618Z,1024.23
2018-02-06T00:51:09.447Z,1024.17
2018-02-06T00:52:18.764Z,1024.14
2018-02-06T00:53:27.591Z,1024.2
2018-02-06T00:54:36.416Z,1024.15
2018-02-06T00:55:45.247Z,1024.14
2018-02-06T00:56:54.064Z,1024.12
2018-02-06T00:58:03.041Z,1024.14
2018-02-06T00:59:11.872Z,1024.09
2018-02-06T01:00:20.694Z,1024.04
2018-02-06T01:01:29.521Z,1024
2018-02-06T01:02:38.345Z,1024
2018-02-06T01:03:47.370Z,1024
2018-02-06T01:04:56.195Z,1023.93
2018-02-06T01:06:05.022Z,1023.94
2018-02-06T01:07:14.119Z,1023.9
2018-02-06T01:08:22.946Z,1023.9
2018-02-06T01:09:31.873Z,1023.91
2018-02-06T01:10:40.700Z,1023.94
2018-02-06T01:11:49.525Z,1023.91
2018-02-06T01:12:58.352Z,1023.94
2018-02-06T01:14:07.178Z,1023.92
2018-02-06T01:15:16.000Z,1023.92
2018-02-06T01:16:24.825Z,1023.87
2018-02-06T01:17:33.652Z,1023.84
2018-02-06T01:18:42.476Z,1023.85
2018-02-06T01:19:51.301Z,1023.85
2018-02-06T01:21:00.426Z,1023.79
2018-02-06T01:22:09.531Z,1023.77
2018-02-06T01:23:18.358Z,1023.74
2018-02-06T01:24:27.183Z,1023.75
2018-02-06T01:25:36.008Z,1023.69
2018-02-06T01:26:44.880Z,1023.64
2018-02-06T01:27:53.705Z,1023.62
2018-02-06T01:29:02.531Z,1023.63
2018-02-06T01:30:11.355Z,1023.63
2018-02-06T01:31:20.179Z,1023.6
2018-02-06T01:32:29.108Z,1023.57
2018-02-06T01:33:37.934Z,1023.63
2018-02-06T01:34:46.798Z,1023.62
2018-02-06T01:35:55.581Z,1023.57
2018-02-06T01:37:04.956Z,1023.52
2018-02-06T01:38:14.219Z,1023.57
2018-02-06T01:39:23.043Z,1023.53
2018-02-06T01:40:31.870Z,1023.5
2018-02-06T01:41:40.972Z,1023.41
2018-02-06T01:42:49.797Z,1023.43
2018-02-06T01:43:58.623Z,1023.41
2018-02-06T01:45:07.449Z,1023.41
2018-02-06T01:46:16.273Z,1023.43
2018-02-06T01:47:25.097Z,1023.42
2018-02-06T01:48:33.921Z,1023.39
2018-02-06T01:49:42.747Z,1023.35
2018-02-06T01:50:51.571Z,1023.33
2018-02-06T01:52:00.395Z,1023.34
2018-02-06T01:53:09.220Z,1023.27
2018-02-06T01:54:18.094Z,1023.28
2018-02-06T01:55:26.970Z,1023.27
2018-02-06T01:56:35.796Z,1023.25
2018-02-06T01:57:44.620Z,1023.17
2018-02-06T01:58:53.446Z,1023.17
2018-02-06T02:00:02.273Z,1023.13
2018-02-06T02:01:11.200Z,1023.12
2018-02-06T02:02:20.026Z,1023.14
2018-02-06T02:03:29.131Z,1023.1
2018-02-06T02:04:37.960Z,1023.08
2018-02-06T02:05:46.779Z,1023.1
2018-02-06T02:06:55.753Z,1023.09
2018-02-06T02:08:04.579Z,1023.08
2018-02-06T02:09:13.403Z,1023.04
2018-02-06T02:10:22.228Z,1023.02
2018-02-06T02:11:31.052Z,1023.04
2018-02-06T02:12:39.876Z,1022.99
2018-02-06T02:13:48.700Z,1023.03
2018-02-06T02:14:57.526Z,1023.02
2018-02-06T02:16:06.353Z,1022.99
2018-02-06T02:17:15.181Z,1022.99
2018-02-06T02:18:24.107Z,1022.95
2018-02-06T02:19:32.931Z,1022.94
2018-02-06T02:20:41.756Z,1022.87
2018-02-06T02:21:51.131Z,1022.92
2018-02-06T02:22:59.952Z,1022.88
2018-02-06T02:24:09.031Z,1022.88
2018-02-06T02:25:17.856Z,1022.86
2018-02-06T02:26:26.780Z,1022.82
2018-02-06T02:27:35.604Z,1022.83
2018-02-06T02:28:44.432Z,1022.81
2018-02-06T02:29:53.558Z,1022.83
2018-02-06T02:31:02.383Z,1022.75
2018-02-06T02:32:11.207Z,1022.76
2018-02-06T02:33:20.042Z,1022.72
2018-02-06T02:34:28.857Z,1022.74
2018-02-06T02:35:37.682Z,1022.71
2018-02-06T02:36:46.507Z,1022.75
2018-02-06T02:37:55.331Z,1022.69
2018-02-06T02:39:04.158Z,1022.66
2018-02-06T02:40:12.983Z,1022.69
2018-02-06T02:41:21.907Z,1022.65
2018-02-06T04:39:33.490Z,1021.44
2018-02-06T04:40:42.313Z,1021.46
2018-02-06T04:41:51.564Z,1021.44
2018-02-06T04:43:00.388Z,1021.45
2018-02-06T04:44:09.214Z,1021.42
2018-02-06T04:45:18.305Z,1021.43
2018-02-06T04:46:27.126Z,1021.47
2018-02-06T04:47:35.998Z,1021.42
2018-02-06T04:48:44.822Z,1021.41
2018-02-06T04:49:53.645Z,1021.39
2018-02-06T04:51:02.465Z,1021.34
2018-02-06T04:52:11.288Z,1021.33
2018-02-06T04:53:20.161Z,1021.34
2018-02-06T04:54:29.255Z,1021.36
2018-02-06T04:55:38.076Z,1021.33
2018-02-06T04:56:46.900Z,1021.3
2018-02-06T04:57:55.726Z,1021.29
2018-02-06T04:59:04.973Z,1021.32
2018-02-06T05:00:13.797Z,1021.26
2018-02-06T05:01:22.623Z,1021.25
2018-02-06T05:02:31.442Z,1021.23
2018-02-06T05:03:40.268Z,1021.23
2018-02-06T05:04:49.492Z,1021.29
2018-02-06T05:05:58.317Z,1021.25
2018-02-06T05:07:07.141Z,1021.24
2018-02-06T05:08:15.964Z,1021.23
2018-02-06T05:09:24.790Z,1021.2
2018-02-06T05:10:34.084Z,1021.2
2018-02-06T05:11:42.909Z,1021.13
2018-02-06T05:12:51.732Z,1021.14
2018-02-06T05:14:00.560Z,1021.13
2018-02-06T05:15:09.386Z,1021.07
2018-02-06T05:16:18.215Z,1021.1
2018-02-06T05:17:27.033Z,1021.06
2018-02-06T05:18:35.858Z,1021.09
2018-02-06T05:19:44.678Z,1021.03
2018-02-06T05:20:53.770Z,1020.98
2018-02-06T05:22:02.594Z,1020.97
2018-02-06T05:23:11.420Z,1020.97
2018-02-06T05:24:20.241Z,1020.93
2018-02-06T05:25:29.065Z,1020.94
2018-02-06T05:26:37.888Z,1020.92
2018-02-06T05:27:46.710Z,1020.91
2018-02-06T05:28:55.535Z,1020.9
2018-02-06T05:30:04.357Z,1020.93
2018-02-06T05:31:13.180Z,1020.9
2018-02-06T05:32:22.004Z,1020.86
2018-02-06T05:33:30.822Z,1020.84
2018-02-06T05:34:39.648Z,1020.82
2018-02-06T05:35:48.467Z,1020.84
2018-02-06T05:36:57.292Z,1020.77
2018-02-06T05:38:06.389Z,1020.77
2018-02-06T05:39:15.263Z,1020.77
2018-02-06T05:40:24.084Z,1020.76
2018-02-06T05:41:32.907Z,1020.76
2018-02-06T05:42:41.731Z,1020.74
2018-02-06T05:43:50.553Z,1020.71
2018-02-06T05:44:59.375Z,1020.69
2018-02-06T05:46:08.197Z,1020.67
2018-02-06T05:47:17.023Z,1020.68
2018-02-06T05:48:25.845Z,1020.67
2018-02-06T05:49:34.718Z,1020.61
2018-02-06T05:50:43.692Z,1020.62
2018-02-06T05:51:52.516Z,1020.59
2018-02-06T05:53:01.611Z,1020.61
2018-02-06T05:54:10.436Z,1020.57
2018-02-06T05:55:19.259Z,1020.54
2018-02-06T05:56:28.081Z,1020.59
2018-02-06T05:57:36.904Z,1020.55
2018-02-06T05:58:45.726Z,1020.55
2018-02-06T05:59:54.550Z,1020.58
2018-02-06T06:01:03.371Z,1020.56
2018-02-06T06:02:12.194Z,1020.54
2018-02-06T06:03:21.021Z,1020.52
2018-02-06T06:04:29.842Z,1020.47
2018-02-06T06:05:38.665Z,1020.48
2018-02-06T06:06:47.486Z,1020.43
2018-02-06T06:07:56.410Z,1020.47
2018-02-06T06:09:05.234Z,1020.43
2018-02-06T06:10:14.057Z,1020.43
2018-02-06T06:11:22.880Z,1020.42
2018-02-06T06:12:31.705Z,1020.4
2018-02-06T06:13:40.529Z,1020.39
2018-02-06T06:14:49.350Z,1020.38
2018-02-06T06:15:58.175Z,1020.36
2018-02-06T06:17:06.997Z,1020.35
2018-02-06T06:18:15.818Z,1020.34
2018-02-06T06:19:24.643Z,1020.37
2018-02-06T06:20:33.467Z,1020.29
2018-02-06T06:21:42.290Z,1020.32
2018-02-06T06:22:51.390Z,1020.36
2018-02-06T06:24:00.212Z,1020.29
2018-02-06T06:25:09.035Z,1020.25
2018-02-06T06:26:17.858Z,1020.27
2018-02-06T06:27:26.680Z,1020.31
2018-02-06T06:28:35.505Z,1020.31
2018-02-06T06:29:44.328Z,1020.33
2018-02-06T06:30:53.150Z,1020.32
2018-02-06T06:32:02.004Z,1020.32
2018-02-06T06:33:10.826Z,1020.32
2018-02-06T06:34:19.648Z,1020.35
2018-02-06T06:35:28.470Z,1020.28
2018-02-06T06:36:37.565Z,1020.3
2018-02-06T06:37:46.388Z,1020.3
2018-02-06T06:38:55.261Z,1020.3
2018-02-06T06:40:04.088Z,1020.31
2018-02-06T06:41:12.911Z,1020.36
2018-02-06T06:42:21.732Z,1020.31
2018-02-06T06:43:30.554Z,1020.32
2018-02-06T06:44:39.376Z,1020.36
2018-02-06T06:45:48.478Z,1020.34
2018-02-06T06:46:57.302Z,1020.31
2018-02-06T06:48:06.123Z,1020.28
2018-02-06T06:49:14.950Z,1020.25
2018-02-06T06:50:23.823Z,1020.26
2018-02-06T06:51:32.643Z,1020.2
2018-02-06T06:52:41.466Z,1020.16
2018-02-06T06:53:50.290Z,1020.23
2018-02-06T06:54:59.111Z,1020.18
2018-02-06T06:56:07.934Z,1020.21
2018-02-06T06:57:16.760Z,1020.21
2018-02-06T06:58:25.582Z,1020.21
2018-02-06T06:59:34.404Z,1020.25
2018-02-06T07:00:43.505Z,1020.26
2018-02-06T07:01:52.484Z,1020.28
2018-02-06T07:03:01.307Z,1020.28
2018-02-06T07:04:10.130Z,1020.3
2018-02-06T07:05:18.953Z,1020.32
2018-02-06T07:06:27.779Z,1020.29
2018-02-06T07:07:36.898Z,1020.32
2018-02-06T07:08:45.722Z,1020.3
2018-02-06T07:09:54.544Z,1020.3
2018-02-06T07:11:03.366Z,1020.28
2018-02-06T07:12:12.188Z,1020.32
2018-02-06T07:13:21.160Z,1020.31
2018-02-06T07:14:30.037Z,1020.31
2018-02-06T07:15:38.906Z,1020.26
2018-02-06T07:16:47.728Z,1020.3
2018-02-06T07:17:56.554Z,1020.26
2018-02-06T07:19:05.475Z,1020.26
2018-02-06T07:20:14.300Z,1020.24
2018-02-06T07:21:23.160Z,1020.24
2018-02-06T07:22:31.947Z,1020.23
2018-02-06T07:23:40.771Z,1020.18
2018-02-06T07:24:49.741Z,1020.17
2018-02-06T07:25:58.566Z,1020.19
2018-02-06T07:27:07.388Z,1020.15
2018-02-06T07:28:16.209Z,1020.15
2018-02-06T07:29:25.031Z,1020.18
2018-02-06T07:30:33.968Z,1020.2
2018-02-06T07:31:42.791Z,1020.17
2018-02-06T07:32:51.662Z,1020.15
2018-02-06T07:34:00.485Z,1020.18
2018-02-06T07:35:09.324Z,1020.2
2018-02-06T07:36:18.399Z,1020.2
2018-02-06T07:37:27.503Z,1020.18
2018-02-06T07:38:36.447Z,1020.2
2018-02-06T07:39:45.271Z,1020.21
2018-02-06T07:40:54.134Z,1020.19
2018-02-06T07:42:03.258Z,1020.17
2018-02-06T07:43:12.081Z,1020.17
2018-02-06T07:44:20.921Z,1020.21
2018-02-06T07:45:29.742Z,1020.17
2018-02-06T07:46:38.565Z,1020.19
2018-02-06T07:47:47.437Z,1020.2
2018-02-06T07:48:56.261Z,1020.16
2018-02-06T07:50:05.359Z,1020.19
2018-02-06T07:51:14.672Z,1020.16
2018-02-06T07:52:23.492Z,1020.17
2018-02-06T07:53:32.770Z,1020.15
2018-02-06T07:54:41.594Z,1020.1
2018-02-06T07:55:50.712Z,1020.15
2018-02-06T07:56:59.512Z,1020.15
2018-02-06T07:58:08.336Z,1020.13
2018-02-06T07:59:17.257Z,1020.16
2018-02-06T08:00:26.350Z,1020.12
2018-02-06T08:01:35.449Z,1020.13
2018-02-06T08:02:44.288Z,1020.13
2018-02-06T08:03:53.151Z,1020.14
2018-02-06T08:05:01.973Z,1020.15
2018-02-06T08:06:10.800Z,1020.15
2018-02-06T08:07:19.620Z,1020.16
2018-02-06T08:08:28.732Z,1020.17
2018-02-06T08:09:37.557Z,1020.2
2018-02-06T08:10:46.381Z,1020.21
2018-02-06T08:11:55.224Z,1020.22
2018-02-06T08:13:05.298Z,1020.15
2018-02-06T08:14:14.125Z,1020.15
2018-02-06T08:15:23.246Z,1020.09
2018-02-06T08:16:32.176Z,1020.05
2018-02-06T08:17:41.236Z,1020.07
2018-02-06T08:18:51.300Z,1020.02
2018-02-06T08:20:00.124Z,1020
2018-02-06T08:21:08.959Z,1020.01
2018-02-06T08:22:17.782Z,1019.99
2018-02-06T08:23:26.605Z,1019.97
2018-02-06T08:24:35.428Z,1019.98
2018-02-06T08:25:44.252Z,1019.93
2018-02-06T08:26:53.076Z,1019.93
2018-02-06T08:28:02.200Z,1019.95
2018-02-06T08:29:11.024Z,1019.9
2018-02-06T08:30:19.846Z,1019.9
2018-02-06T08:31:28.945Z,1019.89
2018-02-06T08:32:37.768Z,1019.88
2018-02-06T08:33:46.593Z,1019.86
2018-02-06T08:34:55.415Z,1019.86
2018-02-06T08:36:04.237Z,1019.87
2018-02-06T08:37:13.059Z,1019.83
2018-02-06T08:38:21.882Z,1019.79
2018-02-06T08:39:30.861Z,1019.72
2018-02-06T08:40:39.953Z,1019.76
2018-02-06T08:41:48.780Z,1019.77
2018-02-06T08:42:57.601Z,1019.73
2018-02-06T08:44:06.425Z,1019.74
2018-02-06T08:45:15.348Z,1019.72
2018-02-06T08:46:24.171Z,1019.71
2018-02-06T08:47:32.990Z,1019.73
2018-02-06T08:48:41.816Z,1019.73
2018-02-06T08:49:50.637Z,1019.73
2018-02-06T08:50:59.860Z,1019.75
2018-02-06T08:52:08.689Z,1019.69
2018-02-06T08:53:17.512Z,1019.73
2018-02-06T08:54:26.609Z,1019.73
2018-02-06T08:55:35.435Z,1019.75
2018-02-06T08:56:44.257Z,1019.73
2018-02-06T08:57:53.081Z,1019.73
2018-02-06T08:59:01.905Z,1019.73
2018-02-06T09:00:10.728Z,1019.72
2018-02-06T09:01:19.551Z,1019.69
2018-02-06T09:02:28.423Z,1019.72
2018-02-06T09:03:37.568Z,1019.7
2018-02-06T09:04:46.389Z,1019.69
2018-02-06T09:05:55.213Z,1019.67
2018-02-06T09:07:04.037Z,1019.69
2018-02-06T09:08:12.910Z,1019.68
2018-02-06T09:09:21.734Z,1019.63
2018-02-06T09:10:30.560Z,1019.65
2018-02-06T09:11:39.384Z,1019.63
2018-02-06T09:12:48.207Z,1019.62
2018-02-06T09:13:57.233Z,1019.6
2018-02-06T09:15:06.057Z,1019.59
2018-02-06T09:16:14.881Z,1019.59
2018-02-06T09:17:23.707Z,1019.59
2018-02-06T09:18:32.529Z,1019.58
2018-02-06T09:19:41.404Z,1019.58
2018-02-06T09:20:50.227Z,1019.62
2018-02-06T09:21:59.051Z,1019.59
2018-02-06T09:23:07.875Z,1019.57
2018-02-06T09:24:16.699Z,1019.56
2018-02-06T09:25:25.600Z,1019.59
2018-02-06T09:26:34.397Z,1019.59
2018-02-06T09:27:43.222Z,1019.55
2018-02-06T09:28:52.044Z,1019.61
2018-02-06T09:30:01.149Z,1019.58
2018-02-06T09:31:10.123Z,1019.58
2018-02-06T09:32:18.945Z,1019.54
2018-02-06T09:33:28.044Z,1019.54
2018-02-06T09:34:36.870Z,1019.56
2018-02-06T09:35:45.693Z,1019.52
2018-02-06T09:36:54.669Z,1019.5
2018-02-06T09:38:03.492Z,1019.48
2018-02-06T09:39:12.315Z,1019.45
2018-02-06T09:40:21.139Z,1019.44
2018-02-06T09:41:29.963Z,1019.41
2018-02-06T09:42:38.786Z,1019.37
2018-02-06T09:43:47.610Z,1019.4
2018-02-06T09:44:56.436Z,1019.32
2018-02-06T09:46:05.260Z,1019.35
2018-02-06T09:47:14.085Z,1019.32
2018-02-06T09:48:22.966Z,1019.32
2018-02-06T09:49:31.786Z,1019.33
2018-02-06T09:50:40.611Z,1019.37
2018-02-06T09:51:49.435Z,1019.35
2018-02-06T09:52:58.258Z,1019.35
2018-02-06T09:54:07.083Z,1019.35
2018-02-06T09:55:15.907Z,1019.32
2018-02-06T09:56:24.732Z,1019.26
2018-02-06T09:57:33.556Z,1019.28
2018-02-06T09:58:42.380Z,1019.27
2018-02-06T09:59:51.306Z,1019.29
2018-02-06T10:01:00.404Z,1019.23
2018-02-06T10:02:09.503Z,1019.21
2018-02-06T10:03:18.327Z,1019.21
2018-02-06T10:04:27.153Z,1019.17
2018-02-06T10:05:36.077Z,1019.15
2018-02-06T10:06:45.177Z,1019.13
2018-02-06T10:07:54.009Z,1019.19
2018-02-06T10:09:02.930Z,1019.13
2018-02-06T10:10:11.866Z,1019.16
2018-02-06T10:11:20.892Z,1019.07
2018-02-06T10:12:29.805Z,1019.05
2018-02-06T10:13:39.018Z,1019.06
2018-02-06T10:14:47.863Z,1019.1
2018-02-06T10:15:56.947Z,1019.07
2018-02-06T10:17:06.078Z,1019.05
2018-02-06T10:18:15.009Z,1019.1
2018-02-06T10:19:24.339Z,1019.04
2018-02-06T10:20:33.259Z,1019.06
2018-02-06T10:21:42.175Z,1019.05
2018-02-06T10:22:51.308Z,1019.05
2018-02-06T10:24:00.172Z,1018.94
2018-02-06T10:25:09.146Z,1018.97
2018-02-06T10:26:18.047Z,1018.92
2018-02-06T10:27:26.945Z,1018.86
2018-02-06T10:28:36.339Z,1018.86
2018-02-06T10:29:45.205Z,1018.87
2018-02-06T10:30:54.303Z,1018.81
2018-02-06T10:32:03.129Z,1018.86
2018-02-06T10:33:11.965Z,1018.79
2018-02-06T10:34:21.306Z,1018.77
2018-02-06T10:35:30.207Z,1018.76
2018-02-06T10:36:39.112Z,1018.73
2018-02-06T10:37:48.056Z,1018.76
2018-02-06T10:38:56.912Z,1018.72
2018-02-06T10:40:05.997Z,1018.67
2018-02-06T10:41:14.853Z,1018.66
2018-02-06T10:42:23.948Z,1018.63
2018-02-06T10:43:32.824Z,1018.67
2018-02-06T10:44:41.733Z,1018.67
2018-02-06T10:45:50.865Z,1018.68
2018-02-06T10:46:59.782Z,1018.68
2018-02-06T10:48:08.684Z,1018.62
2018-02-06T10:49:17.545Z,1018.63
2018-02-06T10:50:26.604Z,1018.63
2018-02-06T10:51:35.890Z,1018.64
2018-02-06T10:52:44.766Z,1018.63
2018-02-06T10:53:53.697Z,1018.58
2018-02-06T10:55:02.562Z,1018.59
2018-02-06T10:56:11.657Z,1018.58
2018-02-06T10:57:20.860Z,1018.57
2018-02-06T10:58:29.834Z,1018.58
2018-02-06T10:59:39.396Z,1018.62
2018-02-06T11:00:48.308Z,1018.63
2018-02-06T11:01:57.211Z,1018.63
2018-02-06T11:03:06.472Z,1018.6
2018-02-06T11:04:15.405Z,1018.61
2018-02-06T11:05:24.345Z,1018.62
2018-02-06T11:06:33.410Z,1018.63
2018-02-06T11:07:42.236Z,1018.57
2018-02-06T11:08:51.260Z,1018.55
2018-02-06T11:10:00.084Z,1018.54
2018-02-06T11:11:08.915Z,1018.55
2018-02-06T11:12:17.740Z,1018.55
2018-02-06T11:13:26.566Z,1018.47
2018-02-06T11:14:35.541Z,1018.48
2018-02-06T11:15:44.370Z,1018.5
2018-02-06T11:16:53.312Z,1018.48
2018-02-06T11:18:02.789Z,1018.43
2018-02-06T11:19:11.747Z,1018.46
2018-02-06T11:20:21.073Z,1018.42
2018-02-06T11:21:30.050Z,1018.43
2018-02-06T11:22:38.982Z,1018.44
2018-02-06T11:23:47.924Z,1018.41
2018-02-06T11:24:57.073Z,1018.39
2018-02-06T11:26:06.376Z,1018.4
2018-02-06T11:27:15.315Z,1018.41
2018-02-06T11:28:24.137Z,1018.41
2018-02-06T11:29:32.967Z,1018.42
2018-02-06T11:30:41.810Z,1018.42
2018-02-06T11:31:50.956Z,1018.41
2018-02-06T11:32:59.880Z,1018.38
2018-02-06T11:34:08.785Z,1018.4
2018-02-06T11:35:17.750Z,1018.36
2018-02-06T11:36:26.701Z,1018.34
2018-02-06T11:37:35.856Z,1018.33
2018-02-06T11:38:45.075Z,1018.36
2018-02-06T11:39:53.946Z,1018.35
2018-02-06T11:41:02.885Z,1018.32
2018-02-06T11:42:11.806Z,1018.31
2018-02-06T11:43:20.789Z,1018.28
2018-02-06T11:44:29.704Z,1018.31
2018-02-06T11:45:38.584Z,1018.27
2018-02-06T11:46:47.408Z,1018.3
2018-02-06T11:47:56.266Z,1018.25
2018-02-06T11:49:05.459Z,1018.24
2018-02-06T11:50:14.422Z,1018.26
2018-02-06T11:51:23.520Z,1018.23
2018-02-06T11:52:32.420Z,1018.31
2018-02-06T11:53:41.359Z,1018.22
2018-02-06T11:54:50.333Z,1018.23
2018-02-06T11:55:59.211Z,1018.23
2018-02-06T11:57:08.094Z,1018.2
2018-02-06T11:58:16.990Z,1018.24
2018-02-06T11:59:25.873Z,1018.23
2018-02-06T12:00:35.187Z,1018.15
2018-02-06T12:01:44.061Z,1018.21
2018-02-06T12:02:53.008Z,1018.18
2018-02-06T12:04:01.892Z,1018.11
2018-02-06T12:05:10.840Z,1018.15
2018-02-06T12:06:19.776Z,1018.15
2018-02-06T12:07:28.913Z,1018.1
2018-02-06T12:08:37.784Z,1018.06
2018-02-06T12:09:46.721Z,1017.98
2018-02-06T12:10:55.668Z,1017.97
2018-02-06T12:12:04.998Z,1017.97
2018-02-06T12:13:13.830Z,1017.89
2018-02-06T12:14:22.649Z,1017.9
2018-02-06T12:15:31.491Z,1017.92
2018-02-06T12:16:40.469Z,1017.92
2018-02-06T12:17:50.558Z,1017.84
2018-02-06T12:18:59.865Z,1017.8
2018-02-06T12:20:08.723Z,1017.8
2018-02-06T12:21:17.550Z,1017.75
2018-02-06T12:22:26.376Z,1017.75
2018-02-06T12:23:35.404Z,1017.73
2018-02-06T12:24:44.259Z,1017.68
2018-02-06T12:25:53.085Z,1017.69
2018-02-06T12:27:01.928Z,1017.65
2018-02-06T12:28:10.755Z,1017.65
2018-02-06T12:29:19.603Z,1017.65
2018-02-06T12:30:28.493Z,1017.64
2018-02-06T12:31:37.863Z,1017.62
2018-02-06T12:32:46.724Z,1017.64
2018-02-06T12:33:55.558Z,1017.62
2018-02-06T12:35:04.799Z,1017.58
2018-02-06T12:36:13.693Z,1017.57
2018-02-06T12:37:22.619Z,1017.57
2018-02-06T12:38:31.583Z,1017.54
2018-02-06T12:39:40.522Z,1017.52
2018-02-06T12:40:49.715Z,1017.5
2018-02-06T12:41:58.542Z,1017.47
2018-02-06T12:43:07.369Z,1017.55
2018-02-06T12:44:16.195Z,1017.53
2018-02-06T12:45:25.022Z,1017.54
2018-02-06T12:48:13.026Z,1017.5
2018-02-06T12:49:22.563Z,1017.53
2018-02-06T12:50:31.541Z,1017.49
2018-02-06T12:51:41.162Z,1017.48
2018-02-06T12:52:50.044Z,1017.45
2018-02-06T12:53:59.244Z,1017.46
2018-02-06T12:55:08.126Z,1017.41
2018-02-06T12:56:17.001Z,1017.38
2018-02-06T12:57:25.845Z,1017.37
2018-02-06T12:58:34.742Z,1017.42
2018-02-06T12:59:43.623Z,1017.37
2018-02-06T13:00:52.831Z,1017.31
2018-02-06T13:02:01.926Z,1017.33
2018-02-06T13:03:10.901Z,1017.28
2018-02-06T13:04:20.042Z,1017.27
2018-02-06T13:05:28.868Z,1017.18
2018-02-06T13:06:37.712Z,1017.24
2018-02-06T13:07:46.599Z,1017.19
2018-02-06T13:08:55.597Z,1017.16
2018-02-06T13:10:04.420Z,1017.13
2018-02-06T13:11:13.259Z,1017.1
2018-02-06T13:12:22.094Z,1017.09
2018-02-06T13:13:30.988Z,1017.11
2018-02-06T13:14:40.394Z,1017.09
2018-02-06T13:15:49.633Z,1017.09
2018-02-06T13:16:58.551Z,1017.08
2018-02-06T13:18:07.377Z,1017.04
2018-02-06T13:19:16.202Z,1017.02
2018-02-06T13:20:25.180Z,1017.01
2018-02-06T13:21:34.008Z,1017
2018-02-06T13:22:42.834Z,1016.98
2018-02-06T13:23:51.661Z,1016.95
2018-02-06T13:25:00.491Z,1016.94
2018-02-06T13:26:09.468Z,1016.96
2018-02-06T13:27:18.294Z,1016.93
2018-02-06T13:28:27.123Z,1016.88
2018-02-06T13:29:35.953Z,1016.88
2018-02-06T13:30:44.778Z,1016.82
2018-02-06T13:31:53.757Z,1016.76
2018-02-06T13:33:02.588Z,1016.78
2018-02-06T13:34:11.416Z,1016.78
2018-02-06T13:35:20.246Z,1016.74
2018-02-06T13:36:29.074Z,1016.75
2018-02-06T13:37:37.904Z,1016.72
2018-02-06T13:38:46.731Z,1016.74
2018-02-06T13:39:55.563Z,1016.75
2018-02-06T13:41:04.394Z,1016.76
2018-02-06T13:42:13.223Z,1016.72
2018-02-06T13:43:22.254Z,1016.78
2018-02-06T13:44:31.083Z,1016.72
2018-02-06T13:45:39.910Z,1016.72
2018-02-06T13:46:48.740Z,1016.68
2018-02-06T13:47:57.568Z,1016.7
2018-02-06T13:49:06.654Z,1016.64
2018-02-06T13:50:15.473Z,1016.67
2018-02-06T13:51:24.301Z,1016.62
2018-02-06T13:52:33.128Z,1016.6
2018-02-06T13:53:41.957Z,1016.54
2018-02-06T13:54:51.034Z,1016.51
2018-02-06T13:56:00.137Z,1016.52
2018-02-06T13:57:08.964Z,1016.53
2018-02-06T13:58:18.075Z,1016.47
2018-02-06T13:59:26.904Z,1016.46
2018-02-06T14:00:35.887Z,1016.48
2018-02-06T14:01:44.716Z,1016.5
2018-02-06T14:02:53.542Z,1016.54
2018-02-06T14:04:02.371Z,1016.51
2018-02-06T14:05:11.199Z,1016.47
2018-02-06T14:06:20.125Z,1016.45
2018-02-06T14:07:28.951Z,1016.48
2018-02-06T14:08:38.052Z,1016.4
2018-02-06T14:09:46.880Z,1016.38
2018-02-06T14:10:55.986Z,1016.39
2018-02-06T14:12:05.114Z,1016.35
2018-02-06T14:13:13.941Z,1016.37
2018-02-06T14:14:22.772Z,1016.31
2018-02-06T14:15:31.596Z,1016.34
2018-02-06T14:16:40.437Z,1016.31
2018-02-06T14:17:49.263Z,1016.34
2018-02-06T14:18:58.092Z,1016.34
2018-02-06T14:20:06.921Z,1016.31
2018-02-06T14:21:15.747Z,1016.29
2018-02-06T14:22:24.577Z,1016.29
2018-02-06T14:23:33.607Z,1016.27
2018-02-06T14:24:42.435Z,1016.28
2018-02-06T14:25:51.260Z,1016.25
2018-02-06T14:27:00.090Z,1016.2
2018-02-06T14:28:08.916Z,1016.24
2018-02-06T14:29:18.043Z,1016.25
2018-02-06T14:30:26.876Z,1016.25
2018-02-06T14:31:35.704Z,1016.29
2018-02-06T14:32:44.530Z,1016.26
2018-02-06T14:33:53.360Z,1016.24
2018-02-06T14:35:02.334Z,1016.24
2018-02-06T14:36:11.160Z,1016.2
2018-02-06T14:37:19.988Z,1016.16
2018-02-06T14:38:28.816Z,1016.18
2018-02-06T14:39:37.643Z,1016.22
2018-02-06T14:40:46.470Z,1016.15
2018-02-06T14:41:55.299Z,1016.15
2018-02-06T14:43:04.128Z,1016.15
2018-02-06T14:44:12.954Z,1016.17
2018-02-06T14:45:21.784Z,1016.13
2018-02-06T14:46:30.711Z,1016.14
2018-02-06T14:47:39.539Z,1016.14
2018-02-06T14:48:48.370Z,1016.16
2018-02-06T14:49:57.481Z,1016.14
2018-02-06T14:51:06.311Z,1016.12
2018-02-06T14:52:15.291Z,1016.15
2018-02-06T14:53:24.116Z,1016.14
2018-02-06T14:54:32.946Z,1016.15
2018-02-06T14:55:42.327Z,1016.11
2018-02-06T14:56:51.157Z,1016.1
2018-02-06T14:58:00.086Z,1016.13
2018-02-06T14:59:08.915Z,1016.12
2018-02-06T15:00:17.742Z,1016.15
2018-02-06T15:01:26.573Z,1016.14
2018-02-06T15:02:35.401Z,1016.11
2018-02-06T15:03:44.528Z,1016.13
2018-02-06T15:04:53.356Z,1016.12
2018-02-06T15:06:02.185Z,1016.14
2018-02-06T15:07:11.014Z,1016.12
2018-02-06T15:08:19.842Z,1016.18
2018-02-06T15:09:28.970Z,1016.14
2018-02-06T15:10:37.799Z,1016.13
2018-02-06T15:11:46.627Z,1016.15
2018-02-06T15:12:55.454Z,1016.18
2018-02-06T15:14:04.284Z,1016.11
2018-02-06T15:15:13.162Z,1016.06
2018-02-06T15:16:21.990Z,1016.07
2018-02-06T15:17:30.819Z,1016.11
2018-02-06T15:18:39.648Z,1016.1
2018-02-06T15:19:48.475Z,1016.09
2018-02-06T15:20:57.405Z,1016.07
2018-02-06T15:22:06.235Z,1016.07
2018-02-06T15:23:15.063Z,1016.08
2018-02-06T15:24:23.891Z,1016.09
2018-02-06T15:25:32.721Z,1016.09
2018-02-06T15:26:41.648Z,1016.09
2018-02-06T15:27:50.474Z,1016.08
2018-02-06T15:28:59.302Z,1016.12
2018-02-06T15:30:08.127Z,1016.11
2018-02-06T15:31:16.953Z,1016.08
2018-02-06T15:32:25.930Z,1016.02
2018-02-06T15:33:34.758Z,1016.03
2018-02-06T15:34:43.584Z,1016.05
2018-02-06T15:35:52.410Z,1016.05
2018-02-06T15:37:01.237Z,1016.07
2018-02-06T15:38:10.363Z,1016.07
2018-02-06T15:39:19.188Z,1016.05
2018-02-06T15:40:28.019Z,1016.05
2018-02-06T15:41:36.857Z,1016.07
2018-02-06T15:42:45.691Z,1016.07
2018-02-06T15:43:54.627Z,1016.09
2018-02-06T15:45:03.461Z,1016.12
2018-02-06T15:46:12.299Z,1016.12
2018-02-06T15:47:21.136Z,1016.14
2018-02-06T15:48:29.975Z,1016.19
2018-02-06T15:49:39.101Z,1016.17
2018-02-06T15:50:47.939Z,1016.17
2018-02-06T15:51:57.039Z,1016.16
2018-02-06T15:53:05.866Z,1016.14
2018-02-06T15:54:14.717Z,1016.13
2018-02-06T15:55:23.540Z,1016.09